sensor_id;sensor_type;location;lat;lon;timestamp;P1;durP1;ratioP1;P2;durP2;ratioP2
33190;SDS011;19554;42.652;23.364;2024-01-15T00:02:09;68.43;;;31.30;;
33190;SDS011;19554;42.652;23.364;2024-01-15T00:04:38;66.95;;;30.33;;
33190;SDS011;19554;42.652;23.364;2024-01-15T00:07:05;62.53;;;31.70;;
33190;SDS011;19554;42.652;23.364;2024-01-15T00:09:31;67.78;;;33.00;;
33190;SDS011;19554;42.652;23.364;2024-01-15T00:11:56;59.00;;;28.35;;
33190;SDS011;19554;42.652;23.364;2024-01-15T00:14:22;54.38;;;27.15;;
33190;SDS011;19554;42.652;23.364;2024-01-15T00:16:48;65.63;;;32.45;;
33190;SDS011;19554;42.652;23.364;2024-01-15T00:19:16;67.00;;;32.10;;
33190;SDS011;19554;42.652;23.364;2024-01-15T00:21:42;67.28;;;31.70;;
33190;SDS011;19554;42.652;23.364;2024-01-15T00:24:07;67.75;;;31.92;;
33190;SDS011;19554;42.652;23.364;2024-01-15T00:26:33;66.00;;;33.20;;
33190;SDS011;19554;42.652;23.364;2024-01-15T00:28:58;67.75;;;32.22;;
33190;SDS011;19554;42.652;23.364;2024-01-15T00:31:24;62.13;;;32.72;;
33190;SDS011;19554;42.652;23.364;2024-01-15T00:33:49;63.88;;;33.10;;
33190;SDS011;19554;42.652;23.364;2024-01-15T00:36:15;69.97;;;34.00;;
33190;SDS011;19554;42.652;23.364;2024-01-15T00:38:41;72.60;;;33.50;;
33190;SDS011;19554;42.652;23.364;2024-01-15T00:41:07;80.95;;;33.83;;
33190;SDS011;19554;42.652;23.364;2024-01-15T00:43:33;73.88;;;35.92;;
33190;SDS011;19554;42.652;23.364;2024-01-15T00:46:01;74.88;;;34.10;;
33190;SDS011;19554;42.652;23.364;2024-01-15T00:48:27;66.85;;;33.40;;
33190;SDS011;19554;42.652;23.364;2024-01-15T00:50:53;63.67;;;33.08;;
33190;SDS011;19554;42.652;23.364;2024-01-15T00:53:19;61.88;;;31.40;;
33190;SDS011;19554;42.652;23.364;2024-01-15T00:55:47;70.30;;;32.67;;
33190;SDS011;19554;42.652;23.364;2024-01-15T00:58:13;61.28;;;30.25;;
33190;SDS011;19554;42.652;23.364;2024-01-15T01:00:38;64.85;;;33.58;;
33190;SDS011;19554;42.652;23.364;2024-01-15T01:03:04;61.13;;;31.67;;
33190;SDS011;19554;42.652;23.364;2024-01-15T01:05:29;75.10;;;32.88;;
33190;SDS011;19554;42.652;23.364;2024-01-15T01:07:55;64.85;;;33.05;;
33190;SDS011;19554;42.652;23.364;2024-01-15T01:10:20;69.32;;;34.67;;
33190;SDS011;19554;42.652;23.364;2024-01-15T01:12:46;69.32;;;35.38;;
33190;SDS011;19554;42.652;23.364;2024-01-15T01:15:11;62.58;;;31.85;;
33190;SDS011;19554;42.652;23.364;2024-01-15T01:17:37;61.05;;;33.35;;
33190;SDS011;19554;42.652;23.364;2024-01-15T01:20:02;65.18;;;33.30;;
33190;SDS011;19554;42.652;23.364;2024-01-15T01:22:29;75.70;;;35.47;;
33190;SDS011;19554;42.652;23.364;2024-01-15T01:24:55;66.75;;;34.03;;
33190;SDS011;19554;42.652;23.364;2024-01-15T01:27:21;57.50;;;32.88;;
33190;SDS011;19554;42.652;23.364;2024-01-15T01:29:46;61.80;;;31.30;;
33190;SDS011;19554;42.652;23.364;2024-01-15T01:32:12;61.63;;;31.13;;
33190;SDS011;19554;42.652;23.364;2024-01-15T01:34:40;53.30;;;28.65;;
33190;SDS011;19554;42.652;23.364;2024-01-15T01:37:10;49.25;;;26.08;;
33190;SDS011;19554;42.652;23.364;2024-01-15T01:39:38;54.38;;;30.05;;
33190;SDS011;19554;42.652;23.364;2024-01-15T01:42:03;58.70;;;32.83;;
33190;SDS011;19554;42.652;23.364;2024-01-15T01:44:29;50.38;;;24.98;;
33190;SDS011;19554;42.652;23.364;2024-01-15T01:46:54;51.95;;;26.50;;
33190;SDS011;19554;42.652;23.364;2024-01-15T01:49:20;44.08;;;24.80;;
33190;SDS011;19554;42.652;23.364;2024-01-15T01:51:48;48.25;;;25.20;;
33190;SDS011;19554;42.652;23.364;2024-01-15T01:54:13;55.00;;;26.35;;
33190;SDS011;19554;42.652;23.364;2024-01-15T01:56:39;53.92;;;25.02;;
33190;SDS011;19554;42.652;23.364;2024-01-15T01:59:06;50.78;;;24.58;;
33190;SDS011;19554;42.652;23.364;2024-01-15T02:01:34;51.72;;;25.85;;
33190;SDS011;19554;42.652;23.364;2024-01-15T02:04:00;50.55;;;25.45;;
33190;SDS011;19554;42.652;23.364;2024-01-15T02:06:26;50.05;;;23.83;;
33190;SDS011;19554;42.652;23.364;2024-01-15T02:08:52;50.70;;;24.85;;
33190;SDS011;19554;42.652;23.364;2024-01-15T02:11:18;47.90;;;23.23;;
33190;SDS011;19554;42.652;23.364;2024-01-15T02:13:43;45.92;;;22.40;;
33190;SDS011;19554;42.652;23.364;2024-01-15T02:16:09;52.70;;;23.98;;
33190;SDS011;19554;42.652;23.364;2024-01-15T02:18:41;50.35;;;22.40;;
33190;SDS011;19554;42.652;23.364;2024-01-15T02:21:10;36.35;;;18.92;;
33190;SDS011;19554;42.652;23.364;2024-01-15T02:23:37;41.38;;;19.70;;
33190;SDS011;19554;42.652;23.364;2024-01-15T02:26:03;43.90;;;20.75;;
33190;SDS011;19554;42.652;23.364;2024-01-15T02:28:29;47.90;;;21.67;;
33190;SDS011;19554;42.652;23.364;2024-01-15T02:30:55;44.60;;;21.75;;
33190;SDS011;19554;42.652;23.364;2024-01-15T02:33:21;40.08;;;19.33;;
33190;SDS011;19554;42.652;23.364;2024-01-15T02:35:46;48.08;;;23.27;;
33190;SDS011;19554;42.652;23.364;2024-01-15T02:38:15;44.65;;;22.40;;
33190;SDS011;19554;42.652;23.364;2024-01-15T02:40:41;43.55;;;21.85;;
33190;SDS011;19554;42.652;23.364;2024-01-15T02:43:08;46.38;;;22.15;;
33190;SDS011;19554;42.652;23.364;2024-01-15T02:45:34;42.85;;;22.30;;
33190;SDS011;19554;42.652;23.364;2024-01-15T02:47:59;42.92;;;22.40;;
33190;SDS011;19554;42.652;23.364;2024-01-15T02:50:25;40.60;;;21.40;;
33190;SDS011;19554;42.652;23.364;2024-01-15T02:52:51;45.83;;;21.83;;
33190;SDS011;19554;42.652;23.364;2024-01-15T02:55:16;45.55;;;21.77;;
33190;SDS011;19554;42.652;23.364;2024-01-15T02:57:42;46.15;;;22.55;;
33190;SDS011;19554;42.652;23.364;2024-01-15T03:00:08;42.22;;;21.83;;
33190;SDS011;19554;42.652;23.364;2024-01-15T03:02:37;51.67;;;24.83;;
33190;SDS011;19554;42.652;23.364;2024-01-15T03:05:05;52.72;;;26.35;;
33190;SDS011;19554;42.652;23.364;2024-01-15T03:07:32;51.20;;;25.80;;
33190;SDS011;19554;42.652;23.364;2024-01-15T03:09:57;50.88;;;25.40;;
33190;SDS011;19554;42.652;23.364;2024-01-15T03:12:23;51.65;;;25.20;;
33190;SDS011;19554;42.652;23.364;2024-01-15T03:14:48;57.85;;;27.60;;
33190;SDS011;19554;42.652;23.364;2024-01-15T03:17:14;59.60;;;27.35;;
33190;SDS011;19554;42.652;23.364;2024-01-15T03:19:39;61.45;;;29.48;;
33190;SDS011;19554;42.652;23.364;2024-01-15T03:22:05;54.92;;;28.92;;
33190;SDS011;19554;42.652;23.364;2024-01-15T03:24:33;59.65;;;29.15;;
33190;SDS011;19554;42.652;23.364;2024-01-15T03:26:58;60.08;;;31.05;;
33190;SDS011;19554;42.652;23.364;2024-01-15T03:29:25;65.68;;;32.72;;
33190;SDS011;19554;42.652;23.364;2024-01-15T03:31:51;59.47;;;31.70;;
33190;SDS011;19554;42.652;23.364;2024-01-15T03:34:17;60.03;;;30.15;;
33190;SDS011;19554;42.652;23.364;2024-01-15T03:36:42;65.25;;;33.20;;
33190;SDS011;19554;42.652;23.364;2024-01-15T03:39:07;64.20;;;33.00;;
33190;SDS011;19554;42.652;23.364;2024-01-15T03:41:33;67.80;;;32.53;;
33190;SDS011;19554;42.652;23.364;2024-01-15T03:43:58;68.03;;;32.92;;
33190;SDS011;19554;42.652;23.364;2024-01-15T03:46:24;73.13;;;35.70;;
33190;SDS011;19554;42.652;23.364;2024-01-15T03:48:49;66.47;;;34.55;;
33190;SDS011;19554;42.652;23.364;2024-01-15T03:51:16;65.18;;;35.25;;
33190;SDS011;19554;42.652;23.364;2024-01-15T03:53:42;61.92;;;34.47;;
33190;SDS011;19554;42.652;23.364;2024-01-15T03:56:08;73.57;;;35.42;;
33190;SDS011;19554;42.652;23.364;2024-01-15T03:58:33;68.60;;;33.90;;
33190;SDS011;19554;42.652;23.364;2024-01-15T04:00:59;70.15;;;33.53;;
33190;SDS011;19554;42.652;23.364;2024-01-15T04:03:24;67.75;;;33.92;;
33190;SDS011;19554;42.652;23.364;2024-01-15T04:05:50;64.15;;;32.58;;
33190;SDS011;19554;42.652;23.364;2024-01-15T04:08:15;63.30;;;34.58;;
33190;SDS011;19554;42.652;23.364;2024-01-15T04:10:41;66.22;;;35.25;;
33190;SDS011;19554;42.652;23.364;2024-01-15T04:13:06;64.90;;;35.67;;
33190;SDS011;19554;42.652;23.364;2024-01-15T04:15:32;60.30;;;32.17;;
33190;SDS011;19554;42.652;23.364;2024-01-15T04:17:57;60.30;;;33.92;;
33190;SDS011;19554;42.652;23.364;2024-01-15T04:20:23;64.32;;;34.00;;
33190;SDS011;19554;42.652;23.364;2024-01-15T04:22:48;66.18;;;35.75;;
33190;SDS011;19554;42.652;23.364;2024-01-15T04:25:14;63.75;;;36.33;;
33190;SDS011;19554;42.652;23.364;2024-01-15T04:27:39;67.78;;;33.25;;
33190;SDS011;19554;42.652;23.364;2024-01-15T04:30:05;67.68;;;34.83;;
33190;SDS011;19554;42.652;23.364;2024-01-15T04:32:31;63.05;;;33.20;;
33190;SDS011;19554;42.652;23.364;2024-01-15T04:34:57;68.28;;;34.10;;
33190;SDS011;19554;42.652;23.364;2024-01-15T04:37:22;61.83;;;33.92;;
33190;SDS011;19554;42.652;23.364;2024-01-15T04:39:48;64.70;;;31.08;;
33190;SDS011;19554;42.652;23.364;2024-01-15T04:42:13;61.97;;;30.63;;
33190;SDS011;19554;42.652;23.364;2024-01-15T04:44:39;63.88;;;31.10;;
33190;SDS011;19554;42.652;23.364;2024-01-15T04:47:04;58.20;;;31.20;;
33190;SDS011;19554;42.652;23.364;2024-01-15T04:49:30;61.05;;;32.38;;
33190;SDS011;19554;42.652;23.364;2024-01-15T04:51:55;55.00;;;30.20;;
33190;SDS011;19554;42.652;23.364;2024-01-15T04:54:20;53.38;;;29.63;;
33190;SDS011;19554;42.652;23.364;2024-01-15T04:56:46;58.38;;;29.83;;
33190;SDS011;19554;42.652;23.364;2024-01-15T04:59:12;57.88;;;30.33;;
33190;SDS011;19554;42.652;23.364;2024-01-15T05:01:39;55.90;;;29.48;;
33190;SDS011;19554;42.652;23.364;2024-01-15T05:04:05;56.38;;;28.85;;
33190;SDS011;19554;42.652;23.364;2024-01-15T05:06:30;53.58;;;27.38;;
33190;SDS011;19554;42.652;23.364;2024-01-15T05:08:56;55.65;;;28.70;;
33190;SDS011;19554;42.652;23.364;2024-01-15T05:11:22;62.25;;;29.23;;
33190;SDS011;19554;42.652;23.364;2024-01-15T05:13:47;60.85;;;29.00;;
33190;SDS011;19554;42.652;23.364;2024-01-15T05:16:13;49.22;;;24.52;;
33190;SDS011;19554;42.652;23.364;2024-01-15T05:18:38;54.97;;;26.88;;
33190;SDS011;19554;42.652;23.364;2024-01-15T05:21:04;59.55;;;26.33;;
33190;SDS011;19554;42.652;23.364;2024-01-15T05:23:30;57.38;;;27.73;;
33190;SDS011;19554;42.652;23.364;2024-01-15T05:25:57;56.85;;;27.20;;
33190;SDS011;19554;42.652;23.364;2024-01-15T05:28:22;54.58;;;27.75;;
33190;SDS011;19554;42.652;23.364;2024-01-15T05:30:48;61.08;;;29.65;;
33190;SDS011;19554;42.652;23.364;2024-01-15T05:33:15;59.92;;;29.58;;
33190;SDS011;19554;42.652;23.364;2024-01-15T05:35:41;60.38;;;31.48;;
33190;SDS011;19554;42.652;23.364;2024-01-15T05:38:07;73.85;;;36.30;;
33190;SDS011;19554;42.652;23.364;2024-01-15T05:40:32;68.50;;;37.97;;
33190;SDS011;19554;42.652;23.364;2024-01-15T05:42:57;79.85;;;39.40;;
33190;SDS011;19554;42.652;23.364;2024-01-15T05:45:23;63.33;;;32.97;;
33190;SDS011;19554;42.652;23.364;2024-01-15T05:47:48;67.03;;;36.40;;
33190;SDS011;19554;42.652;23.364;2024-01-15T05:50:14;62.92;;;34.25;;
33190;SDS011;19554;42.652;23.364;2024-01-15T05:52:39;69.97;;;35.20;;
33190;SDS011;19554;42.652;23.364;2024-01-15T05:55:05;78.93;;;35.72;;
33190;SDS011;19554;42.652;23.364;2024-01-15T05:57:31;70.10;;;36.25;;
33190;SDS011;19554;42.652;23.364;2024-01-15T05:59:56;72.85;;;36.00;;
33190;SDS011;19554;42.652;23.364;2024-01-15T06:02:22;71.10;;;37.30;;
33190;SDS011;19554;42.652;23.364;2024-01-15T06:04:47;71.70;;;34.80;;
33190;SDS011;19554;42.652;23.364;2024-01-15T06:07:13;72.78;;;35.63;;
33190;SDS011;19554;42.652;23.364;2024-01-15T06:09:38;67.32;;;32.70;;
33190;SDS011;19554;42.652;23.364;2024-01-15T06:12:04;74.00;;;36.90;;
33190;SDS011;19554;42.652;23.364;2024-01-15T06:14:30;69.97;;;36.28;;
33190;SDS011;19554;42.652;23.364;2024-01-15T06:16:56;72.45;;;35.78;;
33190;SDS011;19554;42.652;23.364;2024-01-15T06:19:21;72.00;;;36.17;;
33190;SDS011;19554;42.652;23.364;2024-01-15T06:21:47;77.28;;;35.88;;
33190;SDS011;19554;42.652;23.364;2024-01-15T06:24:12;70.38;;;38.42;;
33190;SDS011;19554;42.652;23.364;2024-01-15T06:26:38;73.18;;;37.28;;
33190;SDS011;19554;42.652;23.364;2024-01-15T06:29:04;70.05;;;35.40;;
33190;SDS011;19554;42.652;23.364;2024-01-15T06:31:29;77.40;;;38.40;;
33190;SDS011;19554;42.652;23.364;2024-01-15T06:33:55;79.05;;;38.70;;
33190;SDS011;19554;42.652;23.364;2024-01-15T06:36:21;85.13;;;40.50;;
33190;SDS011;19554;42.652;23.364;2024-01-15T06:38:46;76.68;;;39.10;;
33190;SDS011;19554;42.652;23.364;2024-01-15T06:41:12;77.28;;;40.00;;
33190;SDS011;19554;42.652;23.364;2024-01-15T06:43:38;79.03;;;40.05;;
33190;SDS011;19554;42.652;23.364;2024-01-15T06:46:03;75.93;;;38.33;;
33190;SDS011;19554;42.652;23.364;2024-01-15T06:48:29;71.72;;;38.03;;
33190;SDS011;19554;42.652;23.364;2024-01-15T06:50:54;71.30;;;40.08;;
33190;SDS011;19554;42.652;23.364;2024-01-15T06:53:19;80.47;;;41.33;;
33190;SDS011;19554;42.652;23.364;2024-01-15T06:55:45;77.03;;;40.40;;
33190;SDS011;19554;42.652;23.364;2024-01-15T06:58:11;74.50;;;40.20;;
33190;SDS011;19554;42.652;23.364;2024-01-15T07:00:37;77.40;;;40.85;;
33190;SDS011;19554;42.652;23.364;2024-01-15T07:03:03;78.60;;;41.72;;
33190;SDS011;19554;42.652;23.364;2024-01-15T07:05:28;81.45;;;43.47;;
33190;SDS011;19554;42.652;23.364;2024-01-15T07:07:55;85.40;;;44.67;;
33190;SDS011;19554;42.652;23.364;2024-01-15T07:10:21;86.78;;;46.63;;
33190;SDS011;19554;42.652;23.364;2024-01-15T07:12:46;86.85;;;47.22;;
33190;SDS011;19554;42.652;23.364;2024-01-15T07:15:12;89.85;;;49.35;;
33190;SDS011;19554;42.652;23.364;2024-01-15T07:17:37;95.85;;;50.17;;
33190;SDS011;19554;42.652;23.364;2024-01-15T07:20:05;98.80;;;50.08;;
33190;SDS011;19554;42.652;23.364;2024-01-15T07:22:33;103.40;;;51.30;;
33190;SDS011;19554;42.652;23.364;2024-01-15T07:24:58;100.53;;;55.22;;
33190;SDS011;19554;42.652;23.364;2024-01-15T07:27:24;130.75;;;82.05;;
33190;SDS011;19554;42.652;23.364;2024-01-15T07:29:49;109.18;;;63.88;;
33190;SDS011;19554;42.652;23.364;2024-01-15T07:32:15;92.15;;;51.50;;
33190;SDS011;19554;42.652;23.364;2024-01-15T07:34:41;94.10;;;48.53;;
33190;SDS011;19554;42.652;23.364;2024-01-15T07:37:06;102.13;;;51.70;;
33190;SDS011;19554;42.652;23.364;2024-01-15T07:39:32;101.00;;;52.38;;
33190;SDS011;19554;42.652;23.364;2024-01-15T07:41:59;93.93;;;51.78;;
33190;SDS011;19554;42.652;23.364;2024-01-15T07:44:25;92.65;;;49.38;;
33190;SDS011;19554;42.652;23.364;2024-01-15T07:46:51;98.47;;;51.40;;
33190;SDS011;19554;42.652;23.364;2024-01-15T07:49:16;93.43;;;48.58;;
33190;SDS011;19554;42.652;23.364;2024-01-15T07:51:42;96.03;;;50.80;;
33190;SDS011;19554;42.652;23.364;2024-01-15T07:54:09;87.78;;;47.58;;
33190;SDS011;19554;42.652;23.364;2024-01-15T07:56:35;83.10;;;45.10;;
33190;SDS011;19554;42.652;23.364;2024-01-15T07:59:18;85.38;;;46.20;;
33190;SDS011;19554;42.652;23.364;2024-01-15T08:01:44;152.77;;;66.95;;
33190;SDS011;19554;42.652;23.364;2024-01-15T08:04:09;88.28;;;46.72;;
33190;SDS011;19554;42.652;23.364;2024-01-15T08:06:37;82.63;;;41.40;;
33190;SDS011;19554;42.652;23.364;2024-01-15T08:09:03;64.65;;;33.00;;
33190;SDS011;19554;42.652;23.364;2024-01-15T08:11:29;71.50;;;36.17;;
33190;SDS011;19554;42.652;23.364;2024-01-15T08:13:55;68.50;;;35.65;;
33190;SDS011;19554;42.652;23.364;2024-01-15T08:16:21;59.50;;;31.50;;
33190;SDS011;19554;42.652;23.364;2024-01-15T08:18:46;66.50;;;33.33;;
33190;SDS011;19554;42.652;23.364;2024-01-15T08:21:12;59.25;;;31.73;;
33190;SDS011;19554;42.652;23.364;2024-01-15T08:23:38;59.17;;;28.90;;
33190;SDS011;19554;42.652;23.364;2024-01-15T08:26:04;59.25;;;28.23;;
33190;SDS011;19554;42.652;23.364;2024-01-15T08:28:30;57.58;;;29.77;;
33190;SDS011;19554;42.652;23.364;2024-01-15T08:30:55;58.72;;;31.75;;
33190;SDS011;19554;42.652;23.364;2024-01-15T08:33:21;58.70;;;30.00;;
33190;SDS011;19554;42.652;23.364;2024-01-15T08:35:47;55.92;;;31.20;;
33190;SDS011;19554;42.652;23.364;2024-01-15T08:38:12;60.80;;;30.08;;
33190;SDS011;19554;42.652;23.364;2024-01-15T08:40:38;67.35;;;35.55;;
33190;SDS011;19554;42.652;23.364;2024-01-15T08:43:03;61.47;;;35.17;;
33190;SDS011;19554;42.652;23.364;2024-01-15T08:45:29;65.22;;;34.97;;
33190;SDS011;19554;42.652;23.364;2024-01-15T08:47:54;65.25;;;35.15;;
33190;SDS011;19554;42.652;23.364;2024-01-15T08:50:20;65.65;;;33.25;;
33190;SDS011;19554;42.652;23.364;2024-01-15T08:52:45;65.28;;;31.00;;
33190;SDS011;19554;42.652;23.364;2024-01-15T08:55:11;58.03;;;30.35;;
33190;SDS011;19554;42.652;23.364;2024-01-15T08:57:38;68.05;;;33.78;;
33190;SDS011;19554;42.652;23.364;2024-01-15T09:00:04;61.60;;;28.65;;
33190;SDS011;19554;42.652;23.364;2024-01-15T09:02:33;55.58;;;28.80;;
33190;SDS011;19554;42.652;23.364;2024-01-15T09:04:59;56.25;;;30.27;;
33190;SDS011;19554;42.652;23.364;2024-01-15T09:07:25;60.38;;;27.65;;
33190;SDS011;19554;42.652;23.364;2024-01-15T09:09:52;53.63;;;26.08;;
33190;SDS011;19554;42.652;23.364;2024-01-15T09:12:18;52.58;;;26.10;;
33190;SDS011;19554;42.652;23.364;2024-01-15T09:14:46;56.05;;;26.85;;
33190;SDS011;19554;42.652;23.364;2024-01-15T09:17:12;48.38;;;24.73;;
33190;SDS011;19554;42.652;23.364;2024-01-15T09:19:37;52.40;;;24.73;;
33190;SDS011;19554;42.652;23.364;2024-01-15T09:22:06;51.38;;;24.58;;
33190;SDS011;19554;42.652;23.364;2024-01-15T09:24:32;54.42;;;26.45;;
33190;SDS011;19554;42.652;23.364;2024-01-15T09:26:58;55.85;;;25.90;;
33190;SDS011;19554;42.652;23.364;2024-01-15T09:29:23;61.53;;;26.25;;
33190;SDS011;19554;42.652;23.364;2024-01-15T09:31:52;86.80;;;43.47;;
33190;SDS011;19554;42.652;23.364;2024-01-15T09:34:17;106.00;;;51.97;;
33190;SDS011;19554;42.652;23.364;2024-01-15T09:36:43;108.63;;;54.13;;
33190;SDS011;19554;42.652;23.364;2024-01-15T09:39:09;111.50;;;54.63;;
33190;SDS011;19554;42.652;23.364;2024-01-15T09:41:36;102.60;;;51.40;;
33190;SDS011;19554;42.652;23.364;2024-01-15T09:44:03;100.88;;;52.78;;
33190;SDS011;19554;42.652;23.364;2024-01-15T09:46:29;94.60;;;49.53;;
33190;SDS011;19554;42.652;23.364;2024-01-15T09:51:25;91.63;;;48.65;;
33190;SDS011;19554;42.652;23.364;2024-01-15T09:53:51;97.53;;;49.72;;
33190;SDS011;19554;42.652;23.364;2024-01-15T09:56:17;96.05;;;46.58;;
33190;SDS011;19554;42.652;23.364;2024-01-15T09:58:43;79.85;;;40.40;;
33190;SDS011;19554;42.652;23.364;2024-01-15T10:01:10;76.05;;;39.00;;
33190;SDS011;19554;42.652;23.364;2024-01-15T10:03:36;73.22;;;38.25;;
33190;SDS011;19554;42.652;23.364;2024-01-15T10:06:04;79.57;;;36.17;;
33190;SDS011;19554;42.652;23.364;2024-01-15T10:08:30;64.05;;;33.63;;
33190;SDS011;19554;42.652;23.364;2024-01-15T10:10:57;77.20;;;34.22;;
33190;SDS011;19554;42.652;23.364;2024-01-15T10:13:23;68.13;;;34.22;;
33190;SDS011;19554;42.652;23.364;2024-01-15T10:15:48;65.05;;;34.20;;
33190;SDS011;19554;42.652;23.364;2024-01-15T10:18:14;70.82;;;36.35;;
33190;SDS011;19554;42.652;23.364;2024-01-15T10:20:39;70.28;;;37.33;;
33190;SDS011;19554;42.652;23.364;2024-01-15T10:23:05;71.03;;;37.10;;
33190;SDS011;19554;42.652;23.364;2024-01-15T10:25:30;78.82;;;38.33;;
33190;SDS011;19554;42.652;23.364;2024-01-15T10:28:00;68.65;;;37.95;;
33190;SDS011;19554;42.652;23.364;2024-01-15T10:30:27;71.03;;;34.83;;
33190;SDS011;19554;42.652;23.364;2024-01-15T10:35:29;58.40;;;29.90;;
33190;SDS011;19554;42.652;23.364;2024-01-15T10:37:56;66.18;;;30.92;;
33190;SDS011;19554;42.652;23.364;2024-01-15T10:40:22;59.10;;;31.73;;
33190;SDS011;19554;42.652;23.364;2024-01-15T10:42:48;58.28;;;30.55;;
33190;SDS011;19554;42.652;23.364;2024-01-15T10:45:13;61.00;;;30.85;;
33190;SDS011;19554;42.652;23.364;2024-01-15T10:47:40;52.83;;;26.63;;
33190;SDS011;19554;42.652;23.364;2024-01-15T10:50:07;47.60;;;27.42;;
33190;SDS011;19554;42.652;23.364;2024-01-15T10:52:37;59.10;;;27.60;;
33190;SDS011;19554;42.652;23.364;2024-01-15T10:55:05;51.92;;;28.08;;
33190;SDS011;19554;42.652;23.364;2024-01-15T10:57:34;52.97;;;28.77;;
33190;SDS011;19554;42.652;23.364;2024-01-15T11:00:00;52.63;;;27.77;;
33190;SDS011;19554;42.652;23.364;2024-01-15T11:02:30;60.15;;;29.75;;
33190;SDS011;19554;42.652;23.364;2024-01-15T11:04:59;53.13;;;27.95;;
33190;SDS011;19554;42.652;23.364;2024-01-15T11:07:25;55.78;;;28.65;;
33190;SDS011;19554;42.652;23.364;2024-01-15T11:09:51;52.58;;;26.88;;
33190;SDS011;19554;42.652;23.364;2024-01-15T11:12:17;57.28;;;27.45;;
33190;SDS011;19554;42.652;23.364;2024-01-15T11:14:46;56.75;;;27.73;;
33190;SDS011;19554;42.652;23.364;2024-01-15T11:17:13;70.93;;;34.03;;
33190;SDS011;19554;42.652;23.364;2024-01-15T11:25:18;77.68;;;39.17;;
33190;SDS011;19554;42.652;23.364;2024-01-15T11:27:43;66.47;;;33.33;;
33190;SDS011;19554;42.652;23.364;2024-01-15T11:30:12;74.38;;;33.45;;
33190;SDS011;19554;42.652;23.364;2024-01-15T11:32:38;70.10;;;32.50;;
33190;SDS011;19554;42.652;23.364;2024-01-15T11:35:08;76.38;;;31.25;;
33190;SDS011;19554;42.652;23.364;2024-01-15T11:40:24;67.40;;;30.75;;
33190;SDS011;19554;42.652;23.364;2024-01-15T11:43:03;60.80;;;30.27;;
33190;SDS011;19554;42.652;23.364;2024-01-15T11:45:30;72.28;;;30.85;;
33190;SDS011;19554;42.652;23.364;2024-01-15T11:48:15;64.65;;;29.27;;
33190;SDS011;19554;42.652;23.364;2024-01-15T11:50:42;64.10;;;29.25;;
33190;SDS011;19554;42.652;23.364;2024-01-15T11:53:54;63.10;;;31.60;;
33190;SDS011;19554;42.652;23.364;2024-01-15T11:55:57;61.50;;;30.05;;
33190;SDS011;19554;42.652;23.364;2024-01-15T11:58:23;70.05;;;30.98;;
33190;SDS011;19554;42.652;23.364;2024-01-15T12:00:52;64.47;;;30.58;;
33190;SDS011;19554;42.652;23.364;2024-01-15T12:05:48;65.75;;;31.55;;
33190;SDS011;19554;42.652;23.364;2024-01-15T12:08:14;61.10;;;30.35;;
33190;SDS011;19554;42.652;23.364;2024-01-15T12:10:40;71.60;;;31.70;;
33190;SDS011;19554;42.652;23.364;2024-01-15T12:13:13;59.13;;;30.58;;
33190;SDS011;19554;42.652;23.364;2024-01-15T12:15:40;61.38;;;30.40;;
33190;SDS011;19554;42.652;23.364;2024-01-15T12:18:07;65.82;;;29.95;;
33190;SDS011;19554;42.652;23.364;2024-01-15T12:20:33;70.07;;;31.33;;
33190;SDS011;19554;42.652;23.364;2024-01-15T12:22:59;63.10;;;30.75;;
33190;SDS011;19554;42.652;23.364;2024-01-15T12:25:26;57.90;;;26.98;;
33190;SDS011;19554;42.652;23.364;2024-01-15T12:27:52;58.97;;;26.20;;
33190;SDS011;19554;42.652;23.364;2024-01-15T12:30:19;66.82;;;28.27;;
33190;SDS011;19554;42.652;23.364;2024-01-15T12:32:45;57.83;;;28.67;;
33190;SDS011;19554;42.652;23.364;2024-01-15T12:35:12;57.20;;;28.13;;
33190;SDS011;19554;42.652;23.364;2024-01-15T12:37:42;59.10;;;28.92;;
33190;SDS011;19554;42.652;23.364;2024-01-15T12:40:08;55.67;;;28.55;;
33190;SDS011;19554;42.652;23.364;2024-01-15T12:42:41;52.72;;;26.08;;
33190;SDS011;19554;42.652;23.364;2024-01-15T12:45:07;50.88;;;25.73;;
33190;SDS011;19554;42.652;23.364;2024-01-15T12:47:34;55.92;;;27.13;;
33190;SDS011;19554;42.652;23.364;2024-01-15T12:50:00;49.80;;;25.35;;
33190;SDS011;19554;42.652;23.364;2024-01-15T12:52:26;52.15;;;25.30;;
33190;SDS011;19554;42.652;23.364;2024-01-15T12:54:55;53.05;;;25.98;;
33190;SDS011;19554;42.652;23.364;2024-01-15T12:57:21;54.03;;;27.35;;
33190;SDS011;19554;42.652;23.364;2024-01-15T12:59:47;47.42;;;23.83;;
33190;SDS011;19554;42.652;23.364;2024-01-15T13:02:15;50.28;;;24.00;;
33190;SDS011;19554;42.652;23.364;2024-01-15T13:04:41;55.28;;;25.92;;
33190;SDS011;19554;42.652;23.364;2024-01-15T13:07:07;47.90;;;25.00;;
33190;SDS011;19554;42.652;23.364;2024-01-15T13:09:33;51.88;;;25.27;;
33190;SDS011;19554;42.652;23.364;2024-01-15T13:12:00;54.25;;;24.48;;
33190;SDS011;19554;42.652;23.364;2024-01-15T13:14:26;46.75;;;26.00;;
33190;SDS011;19554;42.652;23.364;2024-01-15T13:16:52;52.83;;;25.90;;
33190;SDS011;19554;42.652;23.364;2024-01-15T13:19:18;48.72;;;25.08;;
33190;SDS011;19554;42.652;23.364;2024-01-15T13:21:44;58.10;;;27.05;;
33190;SDS011;19554;42.652;23.364;2024-01-15T13:24:10;59.10;;;28.15;;
33190;SDS011;19554;42.652;23.364;2024-01-15T13:26:36;53.80;;;26.83;;
33190;SDS011;19554;42.652;23.364;2024-01-15T13:29:04;55.22;;;25.95;;
33190;SDS011;19554;42.652;23.364;2024-01-15T13:31:30;47.03;;;26.20;;
33190;SDS011;19554;42.652;23.364;2024-01-15T13:33:57;59.67;;;27.52;;
33190;SDS011;19554;42.652;23.364;2024-01-15T13:36:23;61.33;;;27.90;;
33190;SDS011;19554;42.652;23.364;2024-01-15T13:38:52;56.22;;;27.02;;
33190;SDS011;19554;42.652;23.364;2024-01-15T13:41:19;50.03;;;24.75;;
33190;SDS011;19554;42.652;23.364;2024-01-15T13:43:49;53.50;;;27.00;;
33190;SDS011;19554;42.652;23.364;2024-01-15T13:46:16;58.85;;;27.67;;
33190;SDS011;19554;42.652;23.364;2024-01-15T13:48:42;53.28;;;27.25;;
33190;SDS011;19554;42.652;23.364;2024-01-15T13:51:08;56.20;;;28.02;;
33190;SDS011;19554;42.652;23.364;2024-01-15T13:53:34;60.53;;;27.33;;
33190;SDS011;19554;42.652;23.364;2024-01-15T13:55:59;63.03;;;26.90;;
33190;SDS011;19554;42.652;23.364;2024-01-15T13:58:25;64.38;;;27.00;;
33190;SDS011;19554;42.652;23.364;2024-01-15T14:00:51;54.95;;;26.77;;
33190;SDS011;19554;42.652;23.364;2024-01-15T14:03:17;66.10;;;29.50;;
33190;SDS011;19554;42.652;23.364;2024-01-15T14:05:42;64.95;;;30.42;;
33190;SDS011;19554;42.652;23.364;2024-01-15T14:08:08;66.47;;;30.50;;
33190;SDS011;19554;42.652;23.364;2024-01-15T14:10:33;59.78;;;27.40;;
33190;SDS011;19554;42.652;23.364;2024-01-15T14:12:59;54.20;;;26.42;;
33190;SDS011;19554;42.652;23.364;2024-01-15T14:15:24;53.78;;;25.48;;
33190;SDS011;19554;42.652;23.364;2024-01-15T14:17:50;56.03;;;27.63;;
33190;SDS011;19554;42.652;23.364;2024-01-15T14:20:16;59.25;;;27.85;;